• Join FlightAware (Why Join?)
  • Login
  • US Flag 
12:29PM EST


 

Airport Tracker/Info


-or-


 

Live Flight TrackerFlight Track Log ✈ AMF1019 ✈ 24-Jul-2013 ✈ KRIC - KCVG

Flight Track Log - Related Links

Times and Time Zones

All times are in EDT time to prevent confusion due to time zone crossing. See the AMF1019 flight status page for this flight to view local times or setup timezone preferences in your user account.

Time Position Orientation Groundspeed Altitude Reporting Facility
EDT Latitude Longitude Course Direction KTS MPH feet Rate Location/Type
09:35PM 37.5333 -77.3167 270° West 155 178 1,100  Level Potomac TRACON
09:36PM 37.5333 -77.3667 270° West 193 222 2,500 2,040 Climbing Potomac TRACON
09:37PM 37.4894 -77.4369 232° Southwest 188 216 6,000 2,220 Climbing Washington Center
09:38PM 37.4658 -77.4861 239° Southwest 182 209 8,000 2,040 Climbing Washington Center
09:39PM 37.4525 -77.5408 253° West 171 197 10,100 1,920 Climbing Washington Center
09:40PM 37.4392 -77.5953 253° West 171 197 11,900 1,740 Climbing Washington Center
09:41PM 37.4275 -77.6553 256° West 166 191 13,700 1,740 Climbing Washington Center
09:42PM 37.4119 -77.7125 251° West 166 191 15,500 1,800 Climbing Washington Center
09:43PM 37.4028 -77.7697 259° West 166 191 17,300 1,740 Climbing Washington Center
09:44PM 37.3933 -77.8269 258° West 166 191 19,000 1,260 Climbing Washington Center
09:45PM 37.3797 -77.8839 253° West 166 191 19,900 540 Climbing Washington Center
09:46PM 37.3636 -77.9542 254° West 185 213 20,100 60 Climbing Washington Center
09:47PM 37.3475 -78.0344 256° West 216 249 20,100  Level Washington Center
09:48PM 37.3292 -78.1175 255° West 238 274 20,100  Level Washington Center
09:49PM 37.3006 -78.1844 242° Southwest 239 275 20,100  Level Washington Center
09:50PM 37.2556 -78.2403 225° Southwest 234 269 20,100  Level Washington Center
09:51PM 37.2083 -78.2961 223° Southwest 240 276 20,100  Level Washington Center
09:52PM 37.1508 -78.3514 217° Southwest 240 276 20,100  Level Washington Center
09:53PM 37.0953 -78.4014 216° Southwest 245 282 20,100  Level Washington Center
09:54PM 37.0400 -78.4542 217° Southwest 250 288 20,100  Level Washington Center
09:55PM 36.9989 -78.5150 230° Southwest 245 282 20,100  Level Washington Center
09:56PM 36.9947 -78.5928 266° West 235 270 20,100  Level Washington Center
09:57PM 37.0011 -78.6764 275° West 235 270 20,100  Level Washington Center
09:58PM 37.0197 -78.7578 286° West 240 276 20,100  Level Washington Center
09:59PM 37.0592 -78.8425 300° West 246 283 20,100  Level Washington Center
10:00PM 37.0944 -78.9222 299° West 258 297 20,100  Level Washington Center
10:01PM 37.1278 -78.9992 299° West 258 297 20,100  Level Washington Center
10:02PM 37.1653 -79.0764 301° West 258 297 20,100  Level Washington Center
10:03PM 37.1964 -79.1483 299° West 258 297 20,100 -60 Level Washington Center
10:04PM 37.2339 -79.2283 301° West 264 304 20,000 -60 Descending Washington Center
10:05PM 37.2711 -79.3058 301° West 264 304 20,000  Level Washington Center
10:06PM 37.3061 -79.3831 300° West 264 304 20,100  Climbing Washington Center
10:07PM 37.3431 -79.4711 298° West 264 304 20,100 -60 Level Washington Center
10:08PM 37.3819 -79.5517 301° West 269 310 20,000  Descending Washington Center
10:09PM 37.4169 -79.6292 300° West 269 310 20,100  Climbing Washington Center
10:10PM 37.4481 -79.6964 300° West 261 300 20,100  Level Washington Center
10:11PM 37.4889 -79.7822 301° West 263 303 20,100  Level Washington Center
10:12PM 37.5214 -79.8653 296° West 268 308 20,100  Level Washington Center
10:13PM 37.5544 -79.9353 301° West 268 308 20,100  Level Washington Center
10:14PM 37.5869 -80.0158 297° West 268 308 20,100  Level Washington Center
10:15PM 37.6217 -80.0911 300° West 268 308 20,100  Level Washington Center
10:16PM 37.6542 -80.1692 298° West 268 308 20,100 -60 Level Washington Center
10:17PM 37.6947 -80.2531 301° West 263 303 20,000  Descending Washington Center
10:18PM 37.7292 -80.3339 298° West 258 297 20,100  Climbing Washington Center
10:19PM 37.7614 -80.4122 298° West 258 297 20,100  Level Washington Center
10:21PM 37.8197 -80.5425 300° West 259 298 20,100  Level Indianapolis Center
10:22PM 37.8539 -80.6211 299° West 256 295 20,100  Level Indianapolis Center
10:23PM 37.8800 -80.7036 292° West 251 289 20,100  Level Indianapolis Center
10:24PM 37.8983 -80.7903 285° West 253 291 20,100  Level Indianapolis Center
10:25PM 37.9169 -80.8769 285° West 253 291 20,100  Level Indianapolis Center
10:26PM 37.9386 -80.9831 285° West 259 298 20,100  Level Indianapolis Center
10:27PM 37.9594 -81.0694 287° West 257 296 20,100  Level Indianapolis Center
10:28PM 37.9792 -81.1567 286° West 257 296 20,100  Level Indianapolis Center
10:29PM 37.9986 -81.2419 286° West 251 289 20,100  Level Indianapolis Center
10:30PM 38.0189 -81.3294 286° West 256 295 20,100  Level Indianapolis Center
10:31PM 38.0392 -81.4164 287° West 256 295 20,100  Level Indianapolis Center
10:32PM 38.0603 -81.5025 287° West 256 295 20,100  Level Indianapolis Center
10:33PM 38.0786 -81.5908 285° West 258 297 20,100  Level Indianapolis Center
10:34PM 38.0969 -81.6767 285° West 256 295 20,100  Level Indianapolis Center
10:35PM 38.1153 -81.7636 285° West 252 290 20,100  Level Indianapolis Center
10:36PM 38.1350 -81.8517 286° West 257 296 20,100  Level Indianapolis Center
10:37PM 38.1542 -81.9389 286° West 257 296 20,100  Level Indianapolis Center
10:38PM 38.1728 -82.0267 285° West 257 296 20,100  Level Indianapolis Center
10:39PM 38.1917 -82.1156 285° West 259 298 20,100  Level Indianapolis Center
10:40PM 38.2150 -82.2208 286° West 258 297 20,100  Level Indianapolis Center
10:41PM 38.2356 -82.3119 286° West 264 304 20,100  Level Indianapolis Center
10:42PM 38.2558 -82.3978 287° West 256 295 20,100  Level Indianapolis Center
10:43PM 38.2772 -82.4872 287° West 263 303 20,100  Level Indianapolis Center
10:44PM 38.2961 -82.5825 284° West 260 299 20,100  Level Indianapolis Center
10:45PM 38.3156 -82.6722 285° West 262 302 20,100 -660 Level Indianapolis Center
10:46PM 38.3356 -82.7631 286° West 264 304 18,800 -1,260 Descending Indianapolis Center
10:47PM 38.3536 -82.8567 284° West 271 312 17,600 -1,140 Descending Indianapolis Center
10:48PM 38.3719 -82.9486 284° West 268 308 16,600 -1,020 Descending Indianapolis Center
10:50PM 38.3931 -83.0383 287° West 264 304 15,600 -1,080 Descending Indianapolis Center
10:51PM 38.4119 -83.1297 285° West 265 305 14,400 -1,140 Descending Indianapolis Center
10:52PM 38.4297 -83.2186 284° West 261 300 13,300 -1,260 Descending Indianapolis Center
10:53PM 38.4519 -83.3219 285° West 260 299 11,900 -1,320 Descending Indianapolis Center
10:54PM 38.4700 -83.4108 285° West 258 297 10,700 -1,200 Descending Indianapolis Center
10:55PM 38.4867 -83.4992 284° West 257 296 9,500 -840 Descending Indianapolis Center
10:56PM 38.5036 -83.5847 284° West 250 288 9,000 -300 Descending Indianapolis Center
10:57PM 38.5192 -83.6672 284° West 241 277 9,000  Level Indianapolis Center
10:58PM 38.5361 -83.7475 285° West 235 270 9,000  Level Indianapolis Center
10:59PM 38.5517 -83.8272 284° West 233 268 9,000  Level Indianapolis Center
11:00PM 38.5681 -83.9075 285° West 233 268 9,000  Level Indianapolis Center
11:01PM 38.5861 -84.0019 284° West 235 270 9,000  Level Indianapolis Center
11:02PM 38.6022 -84.0811 285° West 231 266 9,000 -240 Level Indianapolis Center
11:03PM 38.6175 -84.1622 284° West 234 269 8,600 -600 Descending Indianapolis Center
11:04PM 38.6353 -84.2494 285° West 246 283 7,800 -840 Descending Indianapolis Center
11:05PM 38.6650 -84.3333 294° West 259 298 6,900 -1,020 Descending Indianapolis Center
11:06PM 38.7244 -84.3869 325° Northwest 245 282 5,800 -840 Descending Indianapolis Center
11:07PM 38.7750 -84.4408 320° Northwest 237 273 5,200 -420 Descending Indianapolis Center
11:08PM 38.8214 -84.4914 320° Northwest 222 255 5,000 -360 Descending Indianapolis Center
11:09PM 38.8414 -84.5397 298° West 193 222 4,500 -600 Descending Indianapolis Center
11:10PM 38.8567 -84.6075 286° West 186 214 3,800 -660 Descending Indianapolis Center
11:11PM 38.9000 -84.6500 323° Northwest 166 191 3,100 -540 Descending Cincinnati TRACON
11:12PM 38.9500 -84.6667 345° North 149 171 2,600 -600 Descending Cincinnati TRACON
11:13PM 38.9833 -84.6667 360° North 124 143 2,000 -660 Descending Cincinnati TRACON
11:14PM 39.0167 -84.6667 360° North 120 138 1,300 -720 Descending Cincinnati TRACON
11:16PM 39.0333 -84.6667 North  Level FlightAware Approximate
11:23PM 39.0488 -84.6678 North  Level Estimated